Time;durP1;ratioP1;P1;durP2;ratioP2;P2;SDS_P1;SDS_P2;PMS_P1;PMS_P2;Temp;Humidity;BMP_temperature;BMP_pressure;BME280_temperature;BME280_humidity;BME280_pressure;Samples;Min_cycle;Max_cycle;Signal;HPM_P1;HPM_P2
2021/11/17 02:26:40;;;;;;;51.97;20.27;;;7.70;82.70;;;;;;4976552;28;94698;-70
2021/11/17 02:29:45;;;;;;;52.63;18.83;;;7.70;82.90;;;;;;4976277;28;95999;-70
2021/11/17 02:32:33;;;;;;;54.30;21.55;;;7.70;82.80;;;;;;4975981;28;93430;-70
2021/11/17 02:35:22;;;;;;;52.15;19.83;;;7.70;83.30;;;;;;4976503;28;92524;-70
2021/11/17 02:37:58;;;;;;;55.25;20.27;;;7.70;83.20;;;;;;4976563;28;93178;-71
2021/11/17 02:40:41;;;;;;;57.88;20.20;;;7.70;83.10;;;;;;4975230;28;95826;-71
2021/11/17 02:43:39;;;;;;;52.90;20.83;;;7.80;83.20;;;;;;4974783;28;92443;-71
2021/11/17 02:46:21;;;;;;;56.97;20.65;;;7.80;82.90;;;;;;4976127;28;92364;-70
2021/11/17 02:48:53;;;;;;;49.17;18.98;;;7.80;83.10;;;;;;4974649;28;95382;-71
2021/11/17 02:51:20;;;;;;;54.28;20.73;;;7.70;83.50;;;;;;4976247;28;94075;-70
2021/11/17 02:54:05;;;;;;;52.20;19.98;;;7.80;83.50;;;;;;4976203;28;92447;-70
2021/11/17 02:56:51;;;;;;;57.63;21.38;;;7.80;83.30;;;;;;4976305;28;92400;-71
2021/11/17 02:59:27;;;;;;;54.80;20.77;;;7.90;83.10;;;;;;4975520;28;93113;-70
2021/11/17 03:02:24;;;;;;;58.25;20.90;;;7.90;83.20;;;;;;4976052;28;95627;-70
2021/11/17 03:05:20;;;;;;;52.15;19.40;;;7.90;82.90;;;;;;4976141;28;92366;-71
2021/11/17 03:07:56;;;;;;;47.28;18.92;;;7.90;83.10;;;;;;4976392;28;91640;-70
2021/11/17 03:10:41;;;;;;;48.65;19.70;;;7.90;83.00;;;;;;4975763;28;93174;-70
2021/11/17 03:13:08;;;;;;;51.20;19.45;;;7.90;83.10;;;;;;4974339;28;94307;-70
2021/11/17 03:15:59;;;;;;;54.47;20.38;;;7.90;82.90;;;;;;4974438;28;94866;-70
2021/11/17 03:18:42;;;;;;;46.20;19.25;;;7.90;83.10;;;;;;4976090;28;92948;-71
2021/11/17 03:21:18;;;;;;;50.45;19.52;;;8.00;82.80;;;;;;4975748;28;93196;-70
2021/11/17 03:24:11;;;;;;;55.58;20.08;;;7.90;83.10;;;;;;4974233;28;93994;-71
2021/11/17 03:27:05;;;;;;;55.42;19.88;;;8.00;82.90;;;;;;4974762;28;92608;-70
2021/11/17 03:29:45;;;;;;;49.33;20.27;;;8.00;83.00;;;;;;4974368;28;92601;-70
2021/11/17 03:32:27;;;;;;;48.28;20.75;;;8.00;82.90;;;;;;4975348;28;96806;-71
2021/11/17 03:35:31;;;;;;;48.95;18.65;;;8.00;83.10;;;;;;4975998;28;92871;-70
2021/11/17 03:38:32;;;;;;;52.27;22.07;;;8.00;82.90;;;;;;4974519;28;92803;-70
2021/11/17 03:41:19;;;;;;;47.53;18.60;;;8.00;83.40;;;;;;4975141;28;92875;-70
2021/11/17 03:43:51;;;;;;;51.45;20.73;;;8.00;83.00;;;;;;4974301;28;95601;-70
2021/11/17 03:46:44;;;;;;;52.80;21.15;;;8.00;83.30;;;;;;4975040;28;95117;-71
2021/11/17 03:49:21;;;;;;;45.55;18.52;;;8.00;83.50;;;;;;4933019;28;93085;-70
2021/11/17 03:52:10;;;;;;;52.30;20.50;;;8.00;83.50;;;;;;4936547;28;92430;-70
2021/11/17 03:55:06;;;;;;;48.67;19.77;;;8.00;83.80;;;;;;4935093;28;92477;-70
2021/11/17 03:57:45;;;;;;;51.40;20.52;;;8.00;83.50;;;;;;4935952;28;93254;-71
2021/11/17 04:00:37;;;;;;;53.17;20.45;;;8.00;83.60;;;;;;4936282;28;92356;-70
2021/11/17 04:03:25;;;;;;;53.08;21.10;;;8.00;83.60;;;;;;4936368;28;91670;-70
2021/11/17 04:06:21;;;;;;;50.00;20.25;;;8.10;83.80;;;;;;4935312;28;98303;-70
2021/11/17 04:09:07;;;;;;;47.58;19.35;;;8.00;83.80;;;;;;4936123;28;92875;-71
2021/11/17 04:11:34;;;;;;;49.67;21.20;;;8.00;84.10;;;;;;4933553;28;94833;-71
2021/11/17 04:14:19;;;;;;;54.38;21.75;;;8.00;84.30;;;;;;4936053;28;92459;-70
2021/11/17 04:16:46;;;;;;;49.40;20.10;;;8.10;84.10;;;;;;4936108;28;93402;-70
2021/11/17 04:19:41;;;;;;;49.35;19.92;;;8.00;84.40;;;;;;4935583;28;92966;-70
2021/11/17 04:22:24;;;;;;;47.45;19.50;;;8.10;83.90;;;;;;4939327;28;92344;-70
2021/11/17 04:25:07;;;;;;;47.67;18.90;;;8.00;84.30;;;;;;4939655;28;92419;-71
2021/11/17 04:27:44;;;;;;;46.72;19.55;;;8.00;84.30;;;;;;4939173;28;98672;-71
2021/11/17 04:30:25;;;;;;;47.08;21.13;;;8.10;84.30;;;;;;4938214;28;92865;-70
2021/11/17 04:33:04;;;;;;;50.60;20.63;;;8.10;84.40;;;;;;4939174;28;95139;-71
2021/11/17 04:36:15;;;;;;;46.70;20.75;;;8.10;84.50;;;;;;4939206;28;92507;-70
2021/11/17 04:39:18;;;;;;;49.67;20.67;;;8.10;84.10;;;;;;4932216;28;95686;-70
2021/11/17 04:42:06;;;;;;;53.97;20.58;;;8.20;84.10;;;;;;4937512;28;97962;-70
2021/11/17 04:44:44;;;;;;;54.30;21.38;;;8.20;84.20;;;;;;4938908;28;92542;-71
2021/11/17 04:47:36;;;;;;;51.47;20.80;;;8.20;84.40;;;;;;4944550;28;92554;-70
2021/11/17 04:50:11;;;;;;;55.42;21.70;;;8.20;84.50;;;;;;4978044;28;93148;-70
2021/11/17 04:52:38;;;;;;;57.67;22.10;;;8.20;84.60;;;;;;4978222;28;92789;-71
2021/11/17 04:55:36;;;;;;;64.97;25.30;;;8.20;85.20;;;;;;4977093;28;93432;-71
2021/11/17 04:58:51;;;;;;;54.70;21.52;;;8.30;84.60;;;;;;4978568;28;91691;-70
2021/11/17 05:01:33;;;;;;;;;;;8.30;84.50;;;;;;4963999;28;93089;-70
2021/11/17 05:04:30;;;;;;;60.95;22.83;;;8.20;84.90;;;;;;4979503;28;92683;-70
2021/11/17 05:07:16;;;;;;;59.97;24.00;;;8.20;85.10;;;;;;4975526;28;94947;-70
2021/11/17 05:09:51;;;;;;;63.40;23.17;;;8.20;84.90;;;;;;4978005;28;92394;-70
2021/11/17 05:12:34;;;;;;;62.03;22.33;;;8.20;85.10;;;;;;4977370;28;94433;-71
2021/11/17 05:15:13;;;;;;;69.10;25.42;;;8.30;85.00;;;;;;4977836;28;92897;-71
2021/11/17 05:17:39;;;;;;;61.38;24.20;;;8.30;85.20;;;;;;4977762;28;92375;-71
2021/11/17 05:20:28;;;;;;;54.92;21.67;;;8.20;85.70;;;;;;4976615;28;92616;-70
2021/11/17 05:22:58;;;;;;;63.85;23.48;;;8.20;85.20;;;;;;4976380;28;96023;-71
2021/11/17 05:25:31;;;;;;;60.00;23.10;;;8.20;85.20;;;;;;4977364;28;93543;-70
2021/11/17 05:28:20;;;;;;;60.45;23.52;;;8.30;85.10;;;;;;4977685;28;92519;-70
2021/11/17 05:31:05;;;;;;;57.53;22.83;;;8.30;85.10;;;;;;4977857;28;92401;-70
2021/11/17 05:34:07;;;;;;;55.45;22.83;;;8.30;85.60;;;;;;4975270;28;95544;-70
2021/11/17 05:36:43;;;;;;;57.08;22.77;;;8.30;85.10;;;;;;4977101;28;95284;-70
2021/11/17 05:39:16;;;;;;;59.97;23.83;;;8.30;85.10;;;;;;4977610;28;92338;-70
2021/11/17 05:41:55;;;;;;;59.10;24.55;;;8.30;85.00;;;;;;4977386;28;92510;-71
2021/11/17 05:44:36;;;;;;;49.72;22.20;;;8.30;85.10;;;;;;4977259;28;93000;-70
2021/11/17 05:47:29;;;;;;;58.40;24.27;;;8.30;85.60;;;;;;4976682;28;92810;-70
2021/11/17 05:49:59;;;;;;;60.60;23.27;;;8.40;84.80;;;;;;4974504;28;92499;-70
2021/11/17 05:52:26;;;;;;;56.35;23.35;;;8.40;84.60;;;;;;4977233;28;91775;-70
2021/11/17 05:55:10;;;;;;;62.85;24.60;;;8.40;84.70;;;;;;4976358;28;110866;-70
2021/11/17 05:58:13;;;;;;;59.30;24.10;;;8.50;84.40;;;;;;4975705;28;92799;-70
2021/11/17 06:00:58;;;;;;;55.72;23.35;;;8.50;84.40;;;;;;4960844;28;94909;-71
2021/11/17 06:03:30;;;;;;;62.50;24.40;;;8.50;84.50;;;;;;4976886;28;92363;-70
2021/11/17 06:05:56;;;;;;;60.47;24.17;;;8.50;84.50;;;;;;4975171;28;95744;-71
2021/11/17 06:08:23;;;;;;;53.80;22.88;;;8.50;84.70;;;;;;4976166;28;106981;-71
2021/11/17 06:10:54;;;;;;;62.30;25.95;;;8.50;84.50;;;;;;4977055;28;92935;-71
2021/11/17 06:13:22;;;;;;;54.70;23.10;;;8.50;84.70;;;;;;4976742;28;92482;-71
2021/11/17 06:15:50;;;;;;;60.58;24.33;;;8.50;84.60;;;;;;4975344;28;93052;-70
2021/11/17 06:18:21;;;;;;;61.80;24.23;;;8.50;84.70;;;;;;4977229;28;92699;-70
2021/11/17 06:20:49;;;;;;;62.88;26.20;;;8.60;84.50;;;;;;4975395;28;92835;-71
2021/11/17 06:23:23;;;;;;;60.08;24.48;;;8.60;84.50;;;;;;4975065;28;92873;-70
2021/11/17 06:25:50;;;;;;;;;;;8.60;84.70;;;;;;4974023;28;101719;-70
2021/11/17 06:28:21;;;;;;;60.28;25.45;;;8.50;85.00;;;;;;4976882;28;94834;-70
2021/11/17 06:30:50;;;;;;;60.20;25.30;;;8.50;85.00;;;;;;4975397;28;92434;-70
2021/11/17 06:33:17;;;;;;;59.17;27.05;;;8.60;84.80;;;;;;4976652;28;92860;-70
2021/11/17 06:35:44;;;;;;;59.20;25.20;;;8.60;85.00;;;;;;4975131;28;112988;-70
2021/11/17 06:38:12;;;;;;;63.90;27.60;;;8.60;85.30;;;;;;4975020;28;92936;-71
2021/11/17 06:40:44;;;;;;;64.45;26.25;;;8.70;85.10;;;;;;4974665;28;92440;-71
2021/11/17 06:43:12;;;;;;;65.45;25.17;;;8.70;85.00;;;;;;4976479;28;92172;-70
2021/11/17 06:45:45;;;;;;;66.53;28.25;;;8.70;84.70;;;;;;4976027;28;92916;-70
2021/11/17 06:48:13;;;;;;;65.90;27.53;;;8.70;84.80;;;;;;4975399;28;93897;-71
2021/11/17 06:50:45;;;;;;;65.60;26.33;;;8.70;84.30;;;;;;4974677;28;94826;-70
2021/11/17 06:53:12;;;;;;;64.78;26.58;;;8.70;84.60;;;;;;4976371;28;92435;-70
2021/11/17 06:55:40;;;;;;;68.90;28.33;;;8.70;84.70;;;;;;4974379;28;94149;-70
2021/11/17 06:58:07;;;;;;;65.53;28.00;;;8.80;85.00;;;;;;4974915;28;92948;-70
2021/11/17 07:00:37;;;;;;;73.10;29.40;;;8.80;84.70;;;;;;4975845;28;92615;-70
2021/11/17 07:03:05;;;;;;;69.57;27.60;;;8.90;84.50;;;;;;4974729;28;92447;-70
2021/11/17 07:05:32;;;;;;;72.75;28.90;;;8.90;84.60;;;;;;4975671;28;93212;-70
2021/11/17 07:08:00;;;;;;;71.65;28.73;;;8.90;84.80;;;;;;4974874;28;92769;-70
2021/11/17 07:10:30;;;;;;;68.63;27.15;;;8.90;84.40;;;;;;4975968;28;92565;-70
2021/11/17 07:12:57;;;;;;;65.07;28.15;;;8.90;84.30;;;;;;4974715;28;92478;-70
2021/11/17 07:15:26;;;;;;;71.60;30.02;;;8.90;84.30;;;;;;4974442;28;95450;-70
2021/11/17 07:17:53;;;;;;;72.70;30.02;;;8.90;84.10;;;;;;4975444;28;95269;-70
2021/11/17 07:20:21;;;;;;;68.22;29.10;;;8.90;84.40;;;;;;4973855;28;108337;-70
2021/11/17 07:22:48;;;;;;;69.18;30.17;;;9.00;84.00;;;;;;4975609;28;92718;-70
2021/11/17 07:25:18;;;;;;;70.32;28.73;;;9.00;84.40;;;;;;4975754;28;93146;-70
2021/11/17 07:27:45;;;;;;;70.90;29.20;;;9.00;84.00;;;;;;4975023;28;92757;-70
2021/11/17 07:30:16;;;;;;;68.43;29.67;;;9.00;84.10;;;;;;4975824;28;92407;-70
2021/11/17 07:32:43;;;;;;;72.45;29.83;;;9.10;83.90;;;;;;4976102;28;91718;-71
2021/11/17 07:35:10;;;;;;;72.72;31.35;;;9.10;84.10;;;;;;4975493;28;94815;-70
2021/11/17 07:37:39;;;;;;;67.03;29.85;;;9.10;84.10;;;;;;4975481;28;93108;-70
2021/11/17 07:40:08;;;;;;;73.13;30.17;;;9.10;83.80;;;;;;4973952;28;101777;-70
2021/11/17 07:42:35;;;;;;;72.60;30.00;;;9.10;84.00;;;;;;4975045;28;92394;-71
2021/11/17 07:45:05;;;;;;;72.70;32.20;;;9.20;84.00;;;;;;4975513;28;93401;-70
2021/11/17 07:47:32;;;;;;;67.22;30.92;;;9.20;84.00;;;;;;4974852;28;92793;-70
2021/11/17 07:50:01;;;;;;;70.22;30.75;;;9.20;83.60;;;;;;4975539;28;92529;-70
2021/11/17 07:52:29;;;;;;;75.22;30.88;;;9.20;83.50;;;;;;4975341;28;92571;-70
2021/11/17 07:54:56;;;;;;;66.10;29.45;;;9.20;83.80;;;;;;4972830;28;93150;-71
2021/11/17 07:57:23;;;;;;;68.78;31.13;;;9.20;83.80;;;;;;4975579;28;92938;-70
2021/11/17 07:59:49;;;;;;;72.70;30.60;;;9.20;83.60;;;;;;4975116;28;92466;-70
2021/11/17 08:02:17;;;;;;;72.32;30.80;;;9.20;83.80;;;;;;4975403;28;92443;-70
2021/11/17 08:04:44;;;;;;;68.50;30.60;;;9.20;83.80;;;;;;4973620;28;95619;-70
2021/11/17 08:07:15;;;;;;;65.72;30.48;;;9.30;83.90;;;;;;4975073;28;95223;-70
2021/11/17 08:09:43;;;;;;;64.47;29.13;;;9.30;83.70;;;;;;4975149;28;92836;-70
2021/11/17 08:12:11;;;;;;;71.07;29.98;;;9.30;83.90;;;;;;4975045;28;92483;-70
2021/11/17 08:14:38;;;;;;;71.30;30.95;;;9.40;83.80;;;;;;4974723;28;94672;-70
2021/11/17 08:17:05;;;;;;;72.50;32.03;;;9.40;83.90;;;;;;4975025;28;92775;-70
2021/11/17 08:19:33;;;;;;;74.07;33.55;;;9.40;83.50;;;;;;4973878;28;92393;-70
2021/11/17 08:22:06;;;;;;;69.18;30.08;;;9.40;83.70;;;;;;4973607;28;91745;-70
2021/11/17 08:24:38;;;;;;;75.60;32.55;;;9.50;83.60;;;;;;4975100;28;93152;-71
2021/11/17 08:27:08;;;;;;;68.85;30.40;;;9.50;84.10;;;;;;4957118;28;94170;-70
2021/11/17 08:29:35;;;;;;;74.32;33.05;;;9.50;83.70;;;;;;4973639;28;94757;-71
2021/11/17 08:32:03;;;;;;;68.43;31.65;;;9.50;83.30;;;;;;4973120;28;93287;-71
2021/11/17 08:34:30;;;;;;;71.53;31.90;;;9.60;83.20;;;;;;4974678;28;94007;-70
2021/11/17 08:36:57;;;;;;;72.70;32.08;;;9.60;83.20;;;;;;4974513;28;93016;-70
2021/11/17 08:39:25;;;;;;;73.03;31.58;;;9.60;83.30;;;;;;4974932;28;92421;-70
2021/11/17 08:41:52;;;;;;;72.60;32.63;;;9.60;83.70;;;;;;4974752;28;92480;-70
2021/11/17 08:44:20;;;;;;;66.10;29.92;;;9.60;83.10;;;;;;4973514;28;93142;-71
2021/11/17 08:46:51;;;;;;;65.10;30.42;;;9.70;83.10;;;;;;4974567;28;92910;-71
2021/11/17 08:49:19;;;;;;;68.50;31.42;;;9.80;82.90;;;;;;4973478;28;92551;-70
2021/11/17 08:51:47;;;;;;;67.60;31.23;;;9.80;83.20;;;;;;4972913;28;101263;-71
2021/11/17 08:54:15;;;;;;;67.43;30.73;;;9.90;83.30;;;;;;4973256;28;95640;-70
2021/11/17 08:56:41;;;;;;;72.28;31.30;;;9.90;82.30;;;;;;4956784;28;96581;-71
2021/11/17 08:59:08;;;;;;;71.50;30.85;;;10.00;82.60;;;;;;4973255;28;92489;-70
2021/11/17 09:01:36;;;;;;;65.88;29.48;;;10.00;82.00;;;;;;4956611;28;92508;-71
2021/11/17 09:04:07;;;;;;;65.95;30.88;;;10.00;82.30;;;;;;4974355;28;92980;-71
2021/11/17 09:06:36;;;;;;;73.25;31.08;;;10.00;82.30;;;;;;4974406;28;93582;-70
2021/11/17 09:09:06;;;;;;;77.30;31.88;;;10.00;82.30;;;;;;4977586;28;92431;-71
2021/11/17 09:11:38;;;;;;;69.65;31.27;;;9.90;82.40;;;;;;4978168;28;91696;-71
2021/11/17 09:14:07;;;;;;;79.72;33.58;;;10.00;82.60;;;;;;4976093;28;93153;-70
2021/11/17 09:16:35;;;;;;;73.32;32.45;;;10.00;82.50;;;;;;4977581;28;92936;-71
2021/11/17 09:19:04;;;;;;;74.00;33.53;;;10.00;82.60;;;;;;4976168;28;94825;-70
2021/11/17 09:21:33;;;;;;;73.40;31.70;;;10.10;82.40;;;;;;4977729;28;92458;-70
2021/11/17 09:24:06;;;;;;;79.90;30.95;;;10.10;82.30;;;;;;4976055;28;93078;-70
2021/11/17 09:26:35;;;;;;;69.22;30.05;;;10.20;82.20;;;;;;4977558;28;92840;-70
2021/11/17 09:29:04;;;;;;;72.55;32.45;;;10.20;82.20;;;;;;4975892;28;93487;-71
2021/11/17 09:31:33;;;;;;;78.45;32.42;;;10.20;82.40;;;;;;4977620;28;92545;-70
2021/11/17 09:34:00;;;;;;;70.72;30.42;;;10.30;82.50;;;;;;4976970;28;93186;-70
2021/11/17 09:36:30;;;;;;;73.50;31.63;;;10.30;82.40;;;;;;4978061;28;91669;-70
2021/11/17 09:38:57;;;;;;;67.15;31.25;;;10.40;82.30;;;;;;4977078;28;92430;-70
2021/11/17 09:41:38;;;;;;;68.15;30.05;;;10.40;82.10;;;;;;4975783;28;100463;-71
2021/11/17 09:44:30;;;;;;;66.97;31.08;;;10.60;82.10;;;;;;4974293;28;96526;-70
2021/11/17 09:47:00;;;;;;;75.28;32.10;;;10.60;82.00;;;;;;4976496;28;95312;-70
2021/11/17 09:49:48;;;;;;;64.68;30.08;;;10.60;82.00;;;;;;4977494;28;92436;-71
2021/11/17 09:52:23;;;;;;;64.03;29.40;;;10.70;82.00;;;;;;4976975;28;92457;-70
2021/11/17 09:55:05;;;;;;;64.00;29.80;;;10.80;82.20;;;;;;4977338;28;93005;-71
2021/11/17 09:57:36;;;;;;;64.43;28.85;;;10.80;82.20;;;;;;4975840;28;92838;-70
2021/11/17 10:00:10;;;;;;;70.22;30.92;;;10.80;81.90;;;;;;4976570;28;93028;-70
2021/11/17 10:02:52;;;;;;;69.30;31.42;;;10.80;81.70;;;;;;4975153;28;92147;-71
2021/11/17 10:05:25;;;;;;;62.95;28.63;;;10.80;81.70;;;;;;4976976;28;93064;-70
2021/11/17 10:14:18;;;;;;;64.30;27.73;;;10.70;82.70;;;;;;4960927;28;92916;-70
2021/11/17 10:16:45;;;;;;;60.70;27.73;;;10.70;82.90;;;;;;4976842;28;93009;-70
2021/11/17 10:19:23;;;;;;;67.32;28.58;;;10.60;82.90;;;;;;4974385;28;92974;-71
2021/11/17 10:22:05;;;;;;;64.60;26.95;;;10.70;83.00;;;;;;4977022;28;92474;-71
2021/11/17 10:24:48;;;;;;;52.42;24.95;;;10.80;83.30;;;;;;4976887;28;92422;-70
2021/11/17 10:27:27;;;;;;;55.07;25.03;;;10.80;83.10;;;;;;4976313;28;93010;-70
2021/11/17 10:29:57;;;;;;;56.92;25.15;;;10.90;83.30;;;;;;4976956;28;92762;-71
2021/11/17 10:32:41;;;;;;;54.72;25.50;;;10.90;83.00;;;;;;4976415;28;92362;-71
2021/11/17 10:35:30;;;;;;;51.50;24.60;;;11.10;82.80;;;;;;4975232;28;92453;-71
2021/11/17 10:38:17;;;;;;;46.63;23.65;;;11.20;82.50;;;;;;4974907;28;95476;-71
2021/11/17 10:40:59;;;;;;;44.42;22.13;;;11.30;82.40;;;;;;4974880;28;96693;-71
2021/11/17 10:43:33;;;;;;;47.45;22.40;;;11.30;82.10;;;;;;4976410;28;92458;-71
2021/11/17 10:46:10;;;;;;;45.58;22.33;;;11.40;82.00;;;;;;4976461;28;93069;-71
2021/11/17 10:48:40;;;;;;;43.75;22.40;;;11.50;81.90;;;;;;4976063;28;96128;-71
2021/11/17 10:51:18;;;;;;;51.20;23.98;;;11.50;81.90;;;;;;4974955;28;95501;-70
2021/11/17 10:53:51;;;;;;;48.75;21.58;;;11.50;82.00;;;;;;4976436;28;92371;-74
2021/11/17 10:56:23;;;;;;;39.37;20.83;;;11.60;81.80;;;;;;4976458;28;91618;-74
2021/11/17 10:58:52;;;;;;;43.65;22.60;;;11.60;82.40;;;;;;4975027;28;92923;-74
2021/11/17 11:01:37;;;;;;;44.30;21.23;;;11.60;81.70;;;;;;4958393;28;95709;-74
2021/11/17 11:04:09;;;;;;;39.90;20.98;;;11.60;81.50;;;;;;4973241;28;94876;-74
2021/11/17 11:06:48;;;;;;;42.08;21.20;;;11.60;81.80;;;;;;4974444;28;92398;-74
2021/11/17 11:09:43;;;;;;;46.63;21.90;;;11.50;81.80;;;;;;4974086;28;94161;-74
2021/11/17 11:12:15;;;;;;;38.47;20.65;;;11.50;81.70;;;;;;4977431;28;92965;-74
2021/11/17 11:14:49;;;;;;;42.90;20.92;;;11.60;82.10;;;;;;4994615;28;93508;-74
2021/11/17 11:17:32;;;;;;;38.55;20.40;;;11.70;82.10;;;;;;4994369;28;92428;-75
2021/11/17 11:20:18;;;;;;;34.88;19.52;;;11.90;81.90;;;;;;4995557;28;98764;-75
2021/11/17 11:23:06;;;;;;;38.67;19.83;;;12.10;81.50;;;;;;4996021;28;92993;-75
2021/11/17 11:25:53;;;;;;;36.00;19.30;;;12.20;81.10;;;;;;4994280;28;92963;-75
2021/11/17 11:28:28;;;;;;;39.45;19.25;;;12.30;80.70;;;;;;4993981;28;92558;-75
2021/11/17 11:31:01;;;;;;;34.15;19.38;;;12.30;80.70;;;;;;4994305;28;95641;-75
2021/11/17 11:33:28;;;;;;;43.30;20.87;;;12.40;80.80;;;;;;4994056;28;96520;-76
2021/11/17 11:36:10;;;;;;;35.97;18.15;;;12.30;80.80;;;;;;4993963;28;92435;-76
2021/11/17 11:38:51;;;;;;;38.17;18.15;;;12.40;80.70;;;;;;4994149;28;92445;-75
2021/11/17 11:41:45;;;;;;;37.22;17.95;;;12.30;80.70;;;;;;4995461;28;92962;-76
2021/11/17 11:44:23;;;;;;;35.20;17.17;;;12.40;80.90;;;;;;4993446;28;94029;-77
2021/11/17 11:46:55;;;;;;;28.65;15.95;;;12.30;81.00;;;;;;4995512;28;92512;-74
2021/11/17 11:49:37;;;;;;;29.08;14.85;;;12.40;81.00;;;;;;4993915;28;91846;-75
2021/11/17 11:52:19;;;;;;;34.50;14.00;;;12.40;80.50;;;;;;4995251;28;92468;-76
2021/11/17 11:54:53;;;;;;;29.48;12.13;;;12.40;80.20;;;;;;4995291;28;92362;-75
2021/11/17 11:57:26;;;;;;;31.45;14.90;;;12.50;79.80;;;;;;4992396;28;95575;-76
2021/11/17 12:00:16;;;;;;;27.95;11.65;;;12.50;79.70;;;;;;4995519;28;92930;-75
2021/11/17 12:02:55;;;;;;;27.30;12.00;;;12.50;79.40;;;;;;4994910;28;92400;-76
2021/11/17 12:05:34;;;;;;;31.38;12.82;;;12.50;79.30;;;;;;4994859;28;92836;-75
2021/11/17 12:08:20;;;;;;;26.50;12.27;;;12.60;79.40;;;;;;4995120;28;92835;-75
2021/11/17 12:10:56;;;;;;;29.85;13.02;;;12.70;79.20;;;;;;4995302;28;92827;-75
2021/11/17 12:13:27;;;;;;;33.33;13.05;;;12.60;79.40;;;;;;4993202;28;94742;-75
2021/11/17 12:16:40;;;;;;;32.25;12.63;;;12.70;79.30;;;;;;4995356;28;92978;-75
2021/11/17 12:19:13;;;;;;;28.58;11.68;;;12.80;79.20;;;;;;4933628;28;93086;-75
2021/11/17 12:21:41;;;;;;;27.98;11.75;;;12.80;79.00;;;;;;4985270;28;92504;-75
2021/11/17 12:24:12;;;;;;;28.60;11.45;;;12.80;78.70;;;;;;4993367;28;100843;-75
2021/11/17 12:26:46;;;;;;;27.77;10.07;;;12.80;78.70;;;;;;4994789;28;98340;-76
2021/11/17 12:29:21;;;;;;;20.33;8.70;;;12.90;78.50;;;;;;4994831;28;92370;-75
2021/11/17 12:32:29;;;;;;;21.35;8.13;;;12.90;78.10;;;;;;4995863;28;92723;-75
2021/11/17 12:35:27;;;;;;;20.00;7.30;;;12.90;77.50;;;;;;4987281;28;95458;-75
2021/11/17 12:38:12;;;;;;;21.58;7.13;;;12.90;77.20;;;;;;4995315;28;92475;-75
2021/11/17 12:40:56;;;;;;;23.77;6.45;;;13.00;76.70;;;;;;4995576;28;92521;-75
2021/11/17 12:43:35;;;;;;;19.35;6.80;;;13.00;76.40;;;;;;4998930;28;91750;-75
2021/11/17 12:46:26;;;;;;;20.17;6.15;;;13.10;76.20;;;;;;4998677;28;93082;-75
2021/11/17 12:49:14;;;;;;;15.40;4.68;;;13.20;76.40;;;;;;4997415;28;98789;-75
2021/11/17 12:52:03;;;;;;;17.15;5.63;;;13.30;75.80;;;;;;4996390;28;94958;-75
2021/11/17 12:54:50;;;;;;;16.90;5.13;;;13.40;74.90;;;;;;5013762;28;93059;-74
2021/11/17 12:57:27;;;;;;;21.27;4.50;;;13.70;73.70;;;;;;4996934;28;93035;-74
2021/11/17 12:59:56;;;;;;;17.52;3.53;;;13.80;73.00;;;;;;4998173;28;95456;-75
2021/11/17 13:02:23;;;;;;;20.77;4.18;;;14.00;72.30;;;;;;4996819;28;92717;-74
2021/11/17 13:04:54;;;;;;;14.25;3.30;;;14.00;71.00;;;;;;4998387;28;92503;-74
2021/11/17 13:07:42;;;;;;;20.63;3.75;;;14.00;70.30;;;;;;4997944;28;93746;-75
2021/11/17 13:10:26;;;;;;;12.55;2.78;;;14.00;69.50;;;;;;4998677;28;92821;-74
2021/11/17 13:13:11;;;;;;;13.75;3.45;;;14.00;68.80;;;;;;4998434;28;92384;-75
2021/11/17 13:16:06;;;;;;;11.55;2.60;;;13.90;68.20;;;;;;4998038;28;92427;-75
2021/11/17 13:18:43;;;;;;;10.77;3.08;;;13.90;68.00;;;;;;4987833;28;96744;-75
2021/11/17 13:21:27;;;;;;;12.23;2.50;;;13.80;68.00;;;;;;4996445;28;98160;-75
2021/11/17 13:24:03;;;;;;;;;;;13.70;65.90;;;;;;4998950;28;92807;-75
2021/11/17 13:26:36;;;;;;;10.45;2.40;;;13.60;65.70;;;;;;4997449;28;97538;-75
2021/11/17 13:29:31;;;;;;;9.98;2.38;;;13.60;66.10;;;;;;4997930;28;92940;-75
2021/11/17 13:32:07;;;;;;;6.50;2.35;;;13.60;64.90;;;;;;4998121;28;92861;-75
2021/11/17 13:34:35;;;;;;;8.85;2.15;;;13.50;64.70;;;;;;4997659;28;92400;-75
2021/11/17 13:37:34;;;;;;;14.55;2.88;;;13.50;64.60;;;;;;4998225;28;91786;-75
2021/11/17 13:40:17;;;;;;;12.32;2.70;;;13.40;61.30;;;;;;4990999;28;94787;-75
2021/11/17 13:42:46;;;;;;;6.97;2.35;;;13.40;61.60;;;;;;4979870;28;94132;-75
2021/11/17 13:45:22;;;;;;;9.10;2.58;;;13.30;61.90;;;;;;4996765;28;94809;-75
2021/11/17 13:47:50;;;;;;;7.20;2.63;;;13.30;62.80;;;;;;5012411;28;92456;-75
2021/11/17 13:50:19;;;;;;;10.07;2.10;;;13.30;63.80;;;;;;4997681;28;92999;-75
2021/11/17 13:52:48;;;;;;;9.93;2.15;;;13.30;63.90;;;;;;4994951;28;92962;-75
2021/11/17 13:55:22;;;;;;;10.82;2.58;;;13.30;64.20;;;;;;4996258;28;93258;-75
2021/11/17 13:57:50;;;;;;;17.55;2.97;;;13.30;64.10;;;;;;4996606;28;92447;-75
2021/11/17 14:00:19;;;;;;;15.43;3.33;;;13.30;64.60;;;;;;4997025;28;102951;-75
2021/11/17 14:02:47;;;;;;;11.90;2.97;;;13.20;63.80;;;;;;4997834;28;92908;-75
2021/11/17 14:05:18;;;;;;;11.75;2.58;;;13.20;64.30;;;;;;4997527;28;92476;-75
2021/11/17 14:07:48;;;;;;;10.10;2.15;;;13.20;64.60;;;;;;4995615;28;92500;-74
2021/11/17 14:14:42;;;;;;;7.82;2.28;;;13.20;64.00;;;;;;4995767;28;94762;-75
2021/11/17 14:17:09;;;;;;;9.88;2.45;;;13.00;63.90;;;;;;4996801;28;92439;-75
2021/11/17 14:19:37;;;;;;;9.82;2.97;;;12.90;63.30;;;;;;4997052;28;92898;-74
2021/11/17 14:22:04;;;;;;;9.82;2.17;;;12.80;62.90;;;;;;4996687;28;101131;-74
2021/11/17 14:24:31;;;;;;;9.90;1.98;;;12.70;63.00;;;;;;4997197;28;92793;-74
2021/11/17 14:27:00;;;;;;;11.18;2.50;;;12.60;63.10;;;;;;4996979;28;92509;-75
2021/11/17 14:29:32;;;;;;;13.25;2.35;;;12.50;63.20;;;;;;4995793;28;91668;-75
2021/11/17 14:32:17;;;;;;;11.13;2.67;;;12.40;63.50;;;;;;4995488;28;94143;-69
2021/11/17 14:34:44;;;;;;;10.07;2.25;;;12.40;63.60;;;;;;4996917;28;92870;-69
2021/11/17 14:37:12;;;;;;;7.95;2.47;;;12.20;64.10;;;;;;4994373;28;95031;-69
2021/11/17 14:39:42;;;;;;;7.72;2.05;;;12.10;64.30;;;;;;4996896;28;92459;-69
2021/11/17 14:42:11;;;;;;;9.13;1.98;;;12.00;64.00;;;;;;4996452;28;92963;-70
2021/11/17 14:44:38;;;;;;;9.95;1.90;;;11.90;65.00;;;;;;4996464;28;92740;-70
2021/11/17 14:47:06;;;;;;;12.48;2.33;;;11.80;65.00;;;;;;4996676;28;92953;-70
2021/11/17 14:49:34;;;;;;;8.70;2.33;;;11.70;65.20;;;;;;4995111;28;92573;-70
2021/11/17 14:52:05;;;;;;;11.88;2.15;;;11.70;65.40;;;;;;4996399;28;93133;-70
2021/11/17 14:54:32;;;;;;;7.32;2.10;;;11.60;65.40;;;;;;4996859;28;92827;-70
2021/11/17 14:57:00;;;;;;;7.50;2.15;;;11.60;65.60;;;;;;4996555;28;92446;-70
2021/11/17 14:59:27;;;;;;;7.30;1.70;;;11.50;65.80;;;;;;4996611;28;92446;-69
2021/11/17 15:01:54;;;;;;;7.45;1.88;;;11.50;65.90;;;;;;4995283;28;95372;-70
2021/11/17 15:04:22;;;;;;;11.80;2.45;;;11.50;66.10;;;;;;4994540;28;96336;-70
2021/11/17 15:06:50;;;;;;;8.48;2.20;;;11.40;67.00;;;;;;4996523;28;92400;-70
2021/11/17 15:09:19;;;;;;;10.32;2.20;;;11.40;66.90;;;;;;4994556;28;92448;-70
2021/11/17 15:11:55;;;;;;;10.88;1.90;;;11.30;67.10;;;;;;4994167;28;93128;-70
2021/11/17 15:14:24;;;;;;;11.23;2.42;;;11.30;67.40;;;;;;4996017;28;92595;-70
2021/11/17 15:16:52;;;;;;;12.02;2.78;;;11.20;67.90;;;;;;4996412;28;92492;-70
2021/11/17 15:19:20;;;;;;;21.63;2.67;;;11.10;68.20;;;;;;4995040;28;91730;-70
2021/11/17 15:21:50;;;;;;;10.90;2.38;;;11.10;68.40;;;;;;4995942;28;93028;-70
2021/11/17 15:24:27;;;;;;;11.68;2.15;;;11.00;68.70;;;;;;4996326;28;92741;-70
2021/11/17 15:27:00;;;;;;;8.18;2.67;;;10.90;69.30;;;;;;4994867;28;95530;-70
2021/11/17 15:29:27;;;;;;;11.88;2.30;;;10.90;69.70;;;;;;4996356;28;92530;-70
2021/11/17 15:31:54;;;;;;;7.45;1.88;;;10.80;70.10;;;;;;4995581;28;106562;-70
2021/11/17 15:34:22;;;;;;;10.02;2.75;;;10.70;71.10;;;;;;4995803;28;92796;-70
2021/11/17 15:36:48;;;;;;;13.65;2.63;;;10.60;70.80;;;;;;4994738;28;92554;-70
2021/11/17 15:39:16;;;;;;;14.18;2.10;;;10.50;71.10;;;;;;4995891;28;92911;-70
2021/11/17 15:41:43;;;;;;;12.88;2.67;;;10.50;71.60;;;;;;4995769;28;94836;-70
2021/11/17 15:44:11;;;;;;;12.63;2.85;;;10.40;72.00;;;;;;4995805;28;92905;-70
2021/11/17 15:46:48;;;;;;;10.98;2.10;;;10.30;72.00;;;;;;4977949;28;92480;-70
2021/11/17 15:49:16;;;;;;;9.80;2.58;;;10.30;72.40;;;;;;4994202;28;92498;-70
2021/11/17 15:51:47;;;;;;;6.45;2.30;;;10.20;72.90;;;;;;4994389;28;95463;-70
2021/11/17 15:54:14;;;;;;;12.02;2.85;;;10.10;72.90;;;;;;4995409;28;95449;-70
2021/11/17 15:56:41;;;;;;;14.00;2.55;;;10.00;73.50;;;;;;4977939;28;92588;-70